Time;durP1;ratioP1;P1;durP2;ratioP2;P2;SDS_P1;SDS_P2;PMS_P1;PMS_P2;Temp;Humidity;BMP_temperature;BMP_pressure;BME280_temperature;BME280_humidity;BME280_pressure;Samples;Min_cycle;Max_cycle;Signal;HPM_P1;HPM_P2
2022/01/06 00:01:26;;;;;;;9.95;3.03;;;4.10;80.90;;;;;;5033627;28;20049;-86
2022/01/06 00:03:54;;;;;;;11.60;3.15;;;4.20;80.90;;;;;;5033582;28;20052;-86
2022/01/06 00:06:23;;;;;;;13.25;4.00;;;4.10;80.90;;;;;;5032494;28;20049;-86
2022/01/06 00:08:50;;;;;;;13.95;3.80;;;4.10;80.90;;;;;;5032990;28;20063;-86
2022/01/06 00:11:17;;;;;;;11.18;3.42;;;4.10;80.90;;;;;;5033376;28;20045;-86
2022/01/06 00:13:52;;;;;;;17.85;4.07;;;4.10;80.90;;;;;;5033358;28;20071;-86
2022/01/06 00:24:15;;;;;;;9.27;3.33;;;4.20;80.90;;;;;;5030333;28;20387;-86
2022/01/06 00:26:43;;;;;;;11.82;3.25;;;4.20;80.90;;;;;;5033145;28;20051;-86
2022/01/06 00:29:10;;;;;;;11.10;3.70;;;4.20;80.90;;;;;;5032826;28;20037;-86
2022/01/06 00:31:37;;;;;;;11.68;3.38;;;4.20;81.00;;;;;;5033119;28;20046;-86
2022/01/06 00:34:10;;;;;;;15.68;3.67;;;4.20;81.00;;;;;;5033186;28;20049;-86
2022/01/06 00:36:38;;;;;;;10.35;3.30;;;4.20;81.00;;;;;;5032138;28;20068;-86
2022/01/06 00:39:07;;;;;;;10.80;3.40;;;4.20;81.00;;;;;;5033015;28;20410;-85
2022/01/06 00:41:36;;;;;;;14.27;4.10;;;4.20;81.00;;;;;;5033021;28;20051;-86
2022/01/06 00:44:04;;;;;;;12.10;3.55;;;4.20;81.00;;;;;;5032963;28;20120;-86
2022/01/06 00:46:32;;;;;;;15.07;3.17;;;4.20;81.00;;;;;;5031965;28;20057;-86
2022/01/06 00:48:59;;;;;;;9.25;3.22;;;4.20;81.00;;;;;;5033079;28;20047;-86
2022/01/06 00:51:26;;;;;;;9.43;3.15;;;4.10;81.00;;;;;;5035410;28;20056;-86
2022/01/06 00:53:53;;;;;;;10.75;2.92;;;4.20;81.10;;;;;;5036659;28;20049;-87
2022/01/06 00:56:20;;;;;;;16.10;3.50;;;4.20;81.10;;;;;;5036852;28;20046;-86
2022/01/06 00:58:48;;;;;;;10.98;3.30;;;4.20;81.10;;;;;;5036848;28;20057;-86
2022/01/06 01:01:16;;;;;;;17.00;3.55;;;4.20;81.10;;;;;;5036978;28;20042;-86
2022/01/06 01:03:43;;;;;;;11.00;3.22;;;4.20;81.10;;;;;;5036440;28;20060;-86
2022/01/06 01:06:10;;;;;;;11.23;3.30;;;4.20;81.20;;;;;;5035973;28;20490;-86
2022/01/06 01:08:38;;;;;;;11.10;3.22;;;4.20;81.10;;;;;;5036246;28;20050;-86
2022/01/06 01:11:06;;;;;;;11.93;3.65;;;4.20;81.20;;;;;;5036799;28;20041;-87
2022/01/06 01:13:37;;;;;;;10.88;3.28;;;4.20;81.20;;;;;;5036802;28;20045;-86
2022/01/06 01:16:22;;;;;;;13.55;3.40;;;4.20;81.20;;;;;;5021233;28;20043;-86
2022/01/06 01:18:50;;;;;;;12.20;3.28;;;4.20;81.20;;;;;;5036558;28;20084;-86
2022/01/06 01:21:19;;;;;;;12.77;3.88;;;4.20;81.20;;;;;;5035757;28;20136;-86
2022/01/06 01:23:46;;;;;;;9.20;2.70;;;4.20;81.20;;;;;;5036532;28;20085;-86
2022/01/06 01:26:13;;;;;;;12.30;3.05;;;4.20;81.20;;;;;;5036419;28;20418;-86
2022/01/06 01:28:45;;;;;;;10.93;2.92;;;4.20;81.20;;;;;;5036390;28;20046;-86
2022/01/06 01:33:48;;;;;;;14.20;2.90;;;4.10;81.20;;;;;;5036066;28;20067;-86
2022/01/06 01:36:16;;;;;;;11.63;3.13;;;4.10;81.20;;;;;;5033239;28;20042;-86
2022/01/06 01:38:43;;;;;;;12.45;3.47;;;4.10;81.20;;;;;;5036166;28;20045;-86
2022/01/06 01:41:11;;;;;;;11.80;3.42;;;4.10;81.20;;;;;;5034957;28;20041;-87
2022/01/06 01:43:39;;;;;;;10.55;3.15;;;4.10;81.10;;;;;;5036152;28;20577;-86
2022/01/06 01:46:17;;;;;;;12.00;2.50;;;4.10;81.10;;;;;;5036018;28;20508;-86
2022/01/06 01:49:07;;;;;;;9.48;2.88;;;4.00;81.10;;;;;;5035630;28;20049;-86
2022/01/06 01:51:34;;;;;;;12.57;2.90;;;4.00;81.10;;;;;;5031210;28;20056;-86
2022/01/06 01:54:01;;;;;;;14.35;3.72;;;4.00;81.10;;;;;;5035506;28;20045;-87
2022/01/06 01:56:29;;;;;;;8.30;2.33;;;3.90;81.10;;;;;;5035753;28;20055;-86
2022/01/06 01:58:57;;;;;;;8.45;2.92;;;3.90;81.10;;;;;;5035688;28;20046;-86
2022/01/06 02:01:24;;;;;;;11.85;3.00;;;3.90;81.10;;;;;;5035822;28;20056;-86
2022/01/06 02:03:51;;;;;;;15.05;2.95;;;3.90;81.00;;;;;;5035915;28;20053;-86
2022/01/06 02:06:19;;;;;;;11.75;3.15;;;3.90;81.10;;;;;;5034360;28;20058;-86
2022/01/06 02:08:46;;;;;;;14.23;2.90;;;3.90;81.10;;;;;;5035586;28;20053;-86
2022/01/06 02:11:15;;;;;;;6.70;2.67;;;3.80;81.10;;;;;;5035431;28;20421;-86
2022/01/06 02:13:46;;;;;;;11.02;2.80;;;3.80;81.10;;;;;;5035600;28;20532;-86
2022/01/06 02:16:22;;;;;;;10.90;2.58;;;3.80;81.10;;;;;;5035510;28;20155;-86
2022/01/06 02:18:49;;;;;;;10.23;3.20;;;3.70;81.10;;;;;;5035403;28;20053;-86
2022/01/06 02:21:17;;;;;;;11.07;3.38;;;3.70;81.20;;;;;;5034334;28;20136;-86
2022/01/06 02:23:44;;;;;;;10.15;2.78;;;3.70;81.20;;;;;;5035461;28;20042;-86
2022/01/06 02:26:12;;;;;;;11.63;3.20;;;3.70;81.20;;;;;;5035182;28;20048;-86
2022/01/06 02:28:40;;;;;;;6.90;2.30;;;3.70;81.30;;;;;;5035308;28;20037;-86
2022/01/06 02:31:08;;;;;;;9.68;2.45;;;3.70;81.30;;;;;;5035333;28;20491;-85
2022/01/06 02:33:36;;;;;;;8.70;2.63;;;3.70;81.20;;;;;;5034403;28;20046;-86
2022/01/06 02:36:04;;;;;;;10.15;2.47;;;3.60;81.30;;;;;;5034870;28;20045;-86
2022/01/06 02:38:31;;;;;;;9.07;3.08;;;3.60;81.30;;;;;;5034901;28;20045;-86
2022/01/06 02:40:58;;;;;;;10.80;2.50;;;3.60;81.30;;;;;;5035086;28;20443;-86
2022/01/06 02:43:26;;;;;;;12.43;3.25;;;3.60;81.30;;;;;;5035154;28;20045;-87
2022/01/06 02:45:53;;;;;;;9.60;2.60;;;3.50;81.20;;;;;;5035028;28;20419;-86
2022/01/06 02:48:20;;;;;;;11.38;2.85;;;3.50;81.30;;;;;;5033921;28;20573;-86
2022/01/06 02:50:49;;;;;;;9.18;3.10;;;3.50;81.20;;;;;;5034980;28;20041;-86
2022/01/06 02:53:18;;;;;;;8.80;2.70;;;3.50;81.20;;;;;;5036573;28;20045;-86
2022/01/06 02:55:50;;;;;;;8.70;2.70;;;3.50;81.30;;;;;;5034795;28;20414;-86
2022/01/06 02:58:37;;;;;;;12.50;3.08;;;3.50;81.30;;;;;;5034521;28;20506;-86
2022/01/06 03:01:04;;;;;;;10.02;2.88;;;3.50;81.30;;;;;;5034862;28;20037;-86
2022/01/06 03:03:32;;;;;;;9.35;2.50;;;3.40;81.30;;;;;;5033429;28;20506;-86
2022/01/06 03:05:59;;;;;;;16.92;3.55;;;3.40;81.30;;;;;;5035925;28;20049;-86
2022/01/06 03:08:27;;;;;;;11.18;3.17;;;3.40;81.40;;;;;;5034465;28;20045;-86
2022/01/06 03:10:56;;;;;;;13.05;2.80;;;3.40;81.40;;;;;;5034435;28;20049;-86
2022/01/06 03:13:23;;;;;;;12.95;3.42;;;3.40;81.40;;;;;;5033984;28;20049;-86
2022/01/06 03:15:50;;;;;;;12.07;2.90;;;3.30;81.40;;;;;;5034511;28;20056;-86
2022/01/06 03:18:17;;;;;;;9.75;2.47;;;3.40;81.40;;;;;;5033217;28;20384;-86
2022/01/06 03:20:44;;;;;;;9.55;2.92;;;3.30;81.50;;;;;;5034394;28;20063;-87
2022/01/06 03:23:11;;;;;;;12.00;3.20;;;3.30;81.50;;;;;;5034214;28;20128;-86
2022/01/06 03:25:38;;;;;;;10.25;3.00;;;3.30;81.50;;;;;;5034368;28;20041;-86
2022/01/06 03:28:05;;;;;;;10.35;2.78;;;3.30;81.50;;;;;;5034317;28;20421;-86
2022/01/06 03:30:32;;;;;;;15.05;3.45;;;3.30;81.50;;;;;;5033275;28;20399;-87
2022/01/06 03:32:59;;;;;;;9.13;3.13;;;3.30;81.50;;;;;;5035486;28;20056;-87
2022/01/06 03:35:26;;;;;;;10.98;2.83;;;3.30;81.50;;;;;;5034019;28;20055;-87
2022/01/06 03:37:53;;;;;;;10.98;3.17;;;3.30;81.60;;;;;;5033882;28;20498;-86
2022/01/06 03:40:21;;;;;;;12.57;3.00;;;3.30;81.60;;;;;;5034094;28;20052;-86
2022/01/06 03:42:48;;;;;;;16.50;3.17;;;3.20;81.50;;;;;;5032617;28;20053;-87
2022/01/06 03:45:18;;;;;;;15.50;4.18;;;3.20;81.60;;;;;;5033160;28;20067;-87
2022/01/06 03:47:45;;;;;;;14.32;3.00;;;3.20;81.60;;;;;;5033437;28;20052;-87
2022/01/06 03:50:14;;;;;;;12.52;3.33;;;3.20;81.60;;;;;;5033840;28;20409;-87
2022/01/06 03:52:41;;;;;;;13.55;3.65;;;3.20;81.60;;;;;;5033729;28;20417;-87
2022/01/06 03:55:12;;;;;;;12.55;2.88;;;3.10;81.50;;;;;;5033906;28;20053;-86
2022/01/06 03:57:39;;;;;;;11.27;3.33;;;3.20;81.60;;;;;;5032673;28;20517;-87
2022/01/06 04:00:09;;;;;;;13.02;3.72;;;3.20;81.60;;;;;;5033425;28;20049;-86
2022/01/06 04:02:37;;;;;;;9.32;2.83;;;3.10;81.60;;;;;;5033144;28;20498;-87
2022/01/06 04:05:05;;;;;;;18.55;4.28;;;3.10;81.60;;;;;;5033585;28;20064;-87
2022/01/06 04:07:32;;;;;;;9.27;2.90;;;3.10;81.60;;;;;;5033416;28;20049;-87
2022/01/06 04:10:00;;;;;;;10.02;2.78;;;3.10;81.60;;;;;;5033603;28;20045;-87
2022/01/06 04:12:27;;;;;;;13.13;3.70;;;3.10;81.50;;;;;;5032641;28;20095;-86
2022/01/06 04:14:54;;;;;;;11.18;2.88;;;3.10;81.60;;;;;;5033470;28;20053;-87
2022/01/06 04:17:21;;;;;;;17.13;3.65;;;3.00;81.60;;;;;;5033035;28;20059;-87
2022/01/06 04:19:48;;;;;;;13.40;3.17;;;3.00;81.60;;;;;;5032170;28;20060;-87
2022/01/06 04:22:16;;;;;;;14.90;2.72;;;3.00;81.60;;;;;;5033290;28;20487;-87
2022/01/06 04:24:45;;;;;;;10.52;3.40;;;3.00;81.50;;;;;;5032075;28;20054;-87
2022/01/06 04:27:12;;;;;;;9.65;3.30;;;3.00;81.50;;;;;;5032478;28;20054;-87
2022/01/06 04:29:40;;;;;;;10.82;2.92;;;3.00;81.50;;;;;;5033099;28;20508;-87
2022/01/06 04:32:07;;;;;;;14.45;3.17;;;3.00;81.50;;;;;;5032935;28;20053;-88
2022/01/06 04:34:34;;;;;;;8.50;3.00;;;3.00;81.50;;;;;;5031934;28;20045;-87
2022/01/06 04:37:02;;;;;;;10.30;2.72;;;2.90;81.50;;;;;;5017517;28;20040;-87
2022/01/06 04:39:29;;;;;;;10.52;3.17;;;2.90;81.50;;;;;;5028304;28;20059;-87
2022/01/06 04:41:56;;;;;;;10.23;3.17;;;2.90;81.50;;;;;;5033041;28;20048;-88
2022/01/06 04:44:23;;;;;;;12.25;3.67;;;2.90;81.50;;;;;;5032709;28;20049;-87
2022/01/06 04:46:50;;;;;;;11.40;2.83;;;2.90;81.50;;;;;;5032881;28;20499;-87
2022/01/06 04:49:18;;;;;;;16.58;3.55;;;2.90;81.50;;;;;;5033052;28;20069;-88
2022/01/06 04:51:44;;;;;;;9.32;2.83;;;2.90;81.50;;;;;;5033049;28;20045;-87
2022/01/06 04:54:12;;;;;;;14.02;3.40;;;2.90;81.50;;;;;;5032099;28;20045;-88
2022/01/06 04:56:38;;;;;;;13.00;3.00;;;2.90;81.50;;;;;;5032756;28;20041;-87
2022/01/06 04:59:08;;;;;;;12.55;3.45;;;2.90;81.50;;;;;;5032511;28;20053;-88
2022/01/06 05:01:36;;;;;;;12.13;3.42;;;2.90;81.50;;;;;;5032844;28;20049;-87
2022/01/06 05:04:04;;;;;;;8.00;3.00;;;2.90;81.50;;;;;;5032962;28;20049;-89
2022/01/06 05:06:32;;;;;;;11.48;3.22;;;2.90;81.50;;;;;;5031894;28;20067;-88
2022/01/06 05:08:59;;;;;;;14.77;3.25;;;2.80;81.40;;;;;;5034427;28;20054;-88
2022/01/06 05:11:26;;;;;;;9.70;3.05;;;2.80;81.50;;;;;;5032701;28;20124;-89
2022/01/06 05:13:53;;;;;;;14.70;3.55;;;2.80;81.50;;;;;;5032538;28;20422;-89
2022/01/06 05:16:20;;;;;;;14.57;3.50;;;2.80;81.50;;;;;;5032952;28;20049;-88
2022/01/06 05:18:48;;;;;;;10.27;3.30;;;2.80;81.40;;;;;;5032753;28;20115;-88
2022/01/06 05:21:15;;;;;;;11.13;3.65;;;2.80;81.40;;;;;;5031860;28;20437;-88
2022/01/06 05:23:42;;;;;;;12.07;3.42;;;2.80;81.40;;;;;;5032822;28;20048;-89
2022/01/06 05:26:09;;;;;;;13.02;3.78;;;2.70;81.40;;;;;;5032708;28;20044;-89
2022/01/06 05:28:36;;;;;;;13.75;4.28;;;2.80;81.40;;;;;;5032290;28;20049;-88
2022/01/06 05:31:03;;;;;;;10.32;3.85;;;2.70;81.40;;;;;;5032707;28;20041;-89
2022/01/06 05:33:31;;;;;;;12.02;3.40;;;2.70;81.30;;;;;;5030780;28;20081;-89
2022/01/06 05:35:58;;;;;;;16.58;3.67;;;2.70;81.30;;;;;;5033343;28;20046;-89
2022/01/06 05:38:25;;;;;;;11.45;4.13;;;2.70;81.30;;;;;;5036148;28;20056;-89
2022/01/06 05:40:52;;;;;;;13.50;3.95;;;2.70;81.30;;;;;;5036114;28;20041;-88
2022/01/06 05:43:20;;;;;;;12.80;3.92;;;2.70;81.30;;;;;;5035945;28;20593;-90
2022/01/06 05:45:51;;;;;;;10.73;4.28;;;2.70;81.30;;;;;;5036270;28;20506;-88
2022/01/06 05:48:18;;;;;;;12.10;3.92;;;2.70;81.30;;;;;;5035266;28;20445;-89
2022/01/06 05:50:49;;;;;;;13.93;4.20;;;2.60;81.30;;;;;;5036126;28;20124;-88
2022/01/06 05:53:17;;;;;;;10.88;3.95;;;2.60;81.30;;;;;;5036014;28;20056;-90
2022/01/06 05:55:44;;;;;;;11.77;4.28;;;2.60;81.30;;;;;;5036012;28;20042;-89
2022/01/06 05:58:12;;;;;;;12.82;4.53;;;2.60;81.20;;;;;;5035554;28;20531;-89
2022/01/06 06:00:39;;;;;;;11.38;3.92;;;2.50;81.20;;;;;;5033857;28;20081;-91
2022/01/06 06:03:06;;;;;;;13.20;4.10;;;2.50;81.20;;;;;;5036515;28;20103;-89
2022/01/06 06:05:33;;;;;;;14.63;4.20;;;2.50;81.20;;;;;;5036853;28;20042;-90
2022/01/06 06:08:01;;;;;;;14.25;4.32;;;2.50;81.20;;;;;;5035775;28;20079;-90
2022/01/06 06:10:28;;;;;;;12.80;3.95;;;2.50;81.20;;;;;;5035960;28;20056;-89
2022/01/06 06:12:55;;;;;;;13.95;3.80;;;2.50;81.20;;;;;;5035588;28;20053;-89
2022/01/06 06:15:22;;;;;;;16.95;4.35;;;2.50;81.20;;;;;;5033731;28;20041;-89
2022/01/06 06:17:49;;;;;;;12.63;4.15;;;2.50;81.20;;;;;;5035421;28;20045;-89
2022/01/06 06:20:16;;;;;;;13.98;5.03;;;2.50;81.20;;;;;;5035440;28;20418;-89
2022/01/06 06:22:44;;;;;;;16.88;4.00;;;2.50;81.30;;;;;;5035653;28;20046;-89
2022/01/06 06:25:11;;;;;;;14.63;4.40;;;2.50;81.20;;;;;;5035582;28;20422;-89
2022/01/06 06:27:38;;;;;;;15.55;4.43;;;2.50;81.30;;;;;;5034333;28;20041;-91
2022/01/06 06:30:06;;;;;;;12.95;3.75;;;2.40;81.30;;;;;;5035733;28;20045;-90
2022/01/06 06:32:35;;;;;;;13.45;3.90;;;2.40;81.30;;;;;;5035412;28;20409;-89
2022/01/06 06:35:03;;;;;;;17.70;4.53;;;2.40;81.30;;;;;;5035205;28;20049;-89
2022/01/06 06:37:31;;;;;;;19.30;5.22;;;2.40;81.30;;;;;;5035338;28;20053;-88
2022/01/06 06:39:58;;;;;;;13.38;4.22;;;2.40;81.30;;;;;;5035555;28;20045;-90
2022/01/06 06:42:26;;;;;;;22.15;5.13;;;2.40;81.30;;;;;;5034188;28;20391;-90
2022/01/06 06:44:53;;;;;;;14.95;4.95;;;2.40;81.30;;;;;;5035137;28;20059;-90
2022/01/06 06:47:20;;;;;;;12.65;4.45;;;2.40;81.30;;;;;;5034317;28;20042;-89
2022/01/06 06:49:47;;;;;;;16.38;5.45;;;2.40;81.30;;;;;;5034717;28;20490;-86
2022/01/06 06:52:14;;;;;;;16.17;5.10;;;2.40;81.30;;;;;;5035191;28;20046;-89
2022/01/06 06:54:41;;;;;;;14.98;4.88;;;2.40;81.30;;;;;;5034267;28;20059;-89
2022/01/06 06:57:09;;;;;;;11.55;4.60;;;2.30;81.30;;;;;;5034157;28;20080;-89
2022/01/06 06:59:36;;;;;;;14.27;4.85;;;2.30;81.30;;;;;;5034619;28;20052;-89
2022/01/06 07:02:03;;;;;;;17.45;4.80;;;2.30;81.40;;;;;;5036441;28;20048;-89
2022/01/06 07:04:30;;;;;;;11.57;4.50;;;2.30;81.40;;;;;;5034778;28;20482;-90
2022/01/06 07:07:18;;;;;;;13.43;4.38;;;2.30;81.40;;;;;;5020909;28;20053;-89
2022/01/06 07:09:45;;;;;;;10.15;4.43;;;2.20;81.40;;;;;;5034328;28;20049;-89
2022/01/06 07:12:13;;;;;;;16.80;4.60;;;2.30;81.40;;;;;;5035956;28;20431;-89
2022/01/06 07:14:40;;;;;;;14.90;4.80;;;2.20;81.40;;;;;;5034544;28;20041;-90
2022/01/06 07:17:08;;;;;;;17.27;5.00;;;2.20;81.40;;;;;;5034466;28;20049;-89
2022/01/06 07:19:35;;;;;;;12.18;3.85;;;2.20;81.40;;;;;;5034645;28;20045;-89
2022/01/06 07:22:02;;;;;;;12.00;4.25;;;2.20;81.50;;;;;;5018881;28;20497;-89
2022/01/06 07:24:29;;;;;;;15.68;4.90;;;2.20;81.50;;;;;;5029128;28;20127;-90
2022/01/06 07:26:57;;;;;;;16.65;4.30;;;2.20;81.50;;;;;;5034359;28;20067;-89
2022/01/06 07:29:23;;;;;;;15.80;5.30;;;2.20;81.50;;;;;;5034296;28;20053;-90
2022/01/06 07:31:50;;;;;;;12.35;4.45;;;2.20;81.50;;;;;;5034298;28;20058;-89
2022/01/06 07:34:18;;;;;;;15.10;4.25;;;2.20;81.50;;;;;;5034401;28;20055;-89
2022/01/06 07:36:45;;;;;;;18.60;4.93;;;2.20;81.50;;;;;;5033745;28;20049;-89
2022/01/06 07:39:12;;;;;;;14.63;4.88;;;2.20;81.50;;;;;;5030735;28;20049;-89
2022/01/06 07:41:39;;;;;;;16.10;5.05;;;2.20;81.60;;;;;;5034018;28;20048;-89
2022/01/06 07:44:07;;;;;;;15.80;4.75;;;2.20;81.60;;;;;;5033939;28;20514;-90
2022/01/06 07:46:37;;;;;;;17.00;4.40;;;2.20;81.60;;;;;;5034002;28;20048;-89
2022/01/06 07:49:05;;;;;;;10.60;4.45;;;2.20;81.60;;;;;;5018837;28;20134;-89
2022/01/06 07:51:32;;;;;;;15.65;4.53;;;2.20;81.60;;;;;;5033299;28;20050;-89
2022/01/06 07:54:00;;;;;;;14.57;4.45;;;2.20;81.60;;;;;;5034918;28;20041;-90
2022/01/06 07:56:27;;;;;;;17.73;4.65;;;2.20;81.60;;;;;;5033896;28;20049;-89
2022/01/06 07:58:54;;;;;;;20.23;5.35;;;2.20;81.60;;;;;;5033482;28;20135;-89
2022/01/06 08:01:22;;;;;;;14.65;5.03;;;2.10;81.60;;;;;;5033687;28;20049;-88
2022/01/06 08:03:50;;;;;;;12.02;4.28;;;2.20;81.60;;;;;;5033805;28;20513;-89
2022/01/06 08:06:18;;;;;;;15.70;4.68;;;2.20;81.60;;;;;;5031202;28;20506;-89
2022/01/06 08:08:45;;;;;;;12.90;5.25;;;2.10;81.60;;;;;;5031469;28;20050;-89
2022/01/06 08:11:13;;;;;;;11.23;4.80;;;2.10;81.60;;;;;;5034706;28;20077;-89
2022/01/06 08:13:40;;;;;;;18.02;5.28;;;2.10;81.60;;;;;;5032594;28;20049;-89
2022/01/06 08:16:08;;;;;;;17.20;5.50;;;2.10;81.60;;;;;;5033144;28;20123;-89
2022/01/06 08:18:35;;;;;;;11.77;4.22;;;2.10;81.60;;;;;;5032010;28;20079;-88
2022/01/06 08:21:02;;;;;;;16.20;5.20;;;2.10;81.70;;;;;;5032489;28;20062;-89
2022/01/06 08:23:29;;;;;;;14.80;4.90;;;2.10;81.60;;;;;;5032581;28;20448;-90
2022/01/06 08:25:57;;;;;;;15.75;5.13;;;2.00;81.60;;;;;;5032963;28;20041;-90
2022/01/06 08:28:24;;;;;;;16.80;4.95;;;2.10;81.70;;;;;;5033086;28;20057;-89
2022/01/06 08:30:51;;;;;;;16.95;6.22;;;2.00;81.70;;;;;;5033209;28;20056;-88
2022/01/06 08:33:18;;;;;;;19.67;6.03;;;2.00;81.60;;;;;;5032277;28;20049;-89
2022/01/06 08:35:45;;;;;;;15.98;6.22;;;2.00;81.60;;;;;;5032637;28;20081;-90
2022/01/06 08:38:14;;;;;;;14.23;5.63;;;2.00;81.60;;;;;;5032604;28;20049;-90
2022/01/06 08:40:42;;;;;;;19.92;6.25;;;2.00;81.60;;;;;;5033006;28;20064;-90
2022/01/06 08:43:09;;;;;;;15.93;5.60;;;2.00;81.70;;;;;;5032795;28;20055;-90
2022/01/06 08:45:37;;;;;;;12.93;6.10;;;2.00;81.70;;;;;;5031990;28;20140;-90
2022/01/06 08:48:04;;;;;;;16.75;5.57;;;2.00;81.70;;;;;;5032846;28;20056;-89
2022/01/06 08:50:31;;;;;;;12.98;5.90;;;2.00;81.70;;;;;;5032651;28;20524;-89
2022/01/06 08:52:59;;;;;;;13.70;6.03;;;2.00;81.70;;;;;;5032650;28;20042;-89
2022/01/06 08:55:26;;;;;;;18.88;5.30;;;2.00;81.80;;;;;;5032882;28;20510;-89
2022/01/06 08:57:54;;;;;;;13.18;5.68;;;1.90;81.80;;;;;;5033196;28;20107;-89
2022/01/06 09:00:21;;;;;;;17.10;5.75;;;2.00;81.80;;;;;;5032808;28;20085;-89
2022/01/06 09:02:49;;;;;;;15.95;5.70;;;1.90;81.90;;;;;;5032596;28;20081;-88
2022/01/06 09:05:16;;;;;;;14.07;5.75;;;2.00;81.90;;;;;;5032217;28;20080;-87
2022/01/06 09:07:43;;;;;;;15.43;6.10;;;2.00;81.90;;;;;;5032092;28;20046;-87
2022/01/06 09:10:10;;;;;;;18.13;6.18;;;2.00;82.00;;;;;;5032636;28;20045;-87
2022/01/06 09:12:38;;;;;;;17.55;6.55;;;2.00;82.00;;;;;;5034755;28;20413;-87
2022/01/06 09:15:08;;;;;;;17.02;5.80;;;2.00;82.10;;;;;;5036923;28;20056;-89
2022/01/06 09:17:36;;;;;;;17.75;5.90;;;2.00;82.10;;;;;;5036195;28;20046;-88
2022/01/06 09:20:05;;;;;;;16.83;6.35;;;2.00;82.20;;;;;;5035680;28;20053;-88
2022/01/06 09:22:37;;;;;;;;;;;2.00;82.20;;;;;;5036792;28;20552;-87
2022/01/06 09:25:05;;;;;;;22.27;6.05;;;2.00;82.20;;;;;;5036395;28;19927;-88
2022/01/06 09:27:32;;;;;;;14.93;5.53;;;2.00;82.20;;;;;;5035186;28;20316;-88
2022/01/06 09:29:59;;;;;;;14.13;5.60;;;2.10;82.30;;;;;;5037729;28;20054;-88
2022/01/06 09:32:27;;;;;;;20.42;6.18;;;2.10;82.40;;;;;;5036012;28;20045;-88
2022/01/06 09:34:54;;;;;;;16.42;6.05;;;2.10;82.40;;;;;;5034204;28;20488;-89
2022/01/06 09:37:22;;;;;;;18.60;6.30;;;2.20;82.50;;;;;;5036153;28;20045;-88
2022/01/06 09:39:50;;;;;;;14.88;6.43;;;2.20;82.50;;;;;;5035785;28;20494;-90
2022/01/06 09:42:18;;;;;;;12.25;5.55;;;2.20;82.60;;;;;;5034972;28;20413;-87
2022/01/06 09:44:50;;;;;;;18.38;6.03;;;2.20;82.70;;;;;;5035856;28;20045;-87
2022/01/06 09:47:18;;;;;;;16.58;5.65;;;2.30;82.70;;;;;;5035761;28;20095;-87
2022/01/06 09:50:07;;;;;;;21.60;6.45;;;2.30;82.70;;;;;;5035141;28;20042;-88
2022/01/06 09:52:36;;;;;;;15.00;5.60;;;2.30;82.80;;;;;;5035901;28;20049;-89
2022/01/06 09:55:05;;;;;;;15.95;5.80;;;2.40;82.80;;;;;;5020268;28;20077;-88
2022/01/06 09:57:33;;;;;;;18.70;6.22;;;2.40;82.90;;;;;;5030913;28;20052;-88
2022/01/06 10:00:01;;;;;;;19.67;6.00;;;2.50;83.00;;;;;;5037034;28;20053;-87
2022/01/06 10:02:38;;;;;;;17.58;6.28;;;2.60;83.00;;;;;;5035555;28;20075;-87
2022/01/06 10:05:06;;;;;;;21.85;6.95;;;2.70;83.00;;;;;;5035247;28;20128;-88
2022/01/06 10:07:38;;;;;;;17.95;7.43;;;2.90;83.00;;;;;;5035233;28;20046;-88
2022/01/06 10:10:12;;;;;;;23.67;8.85;;;2.90;83.00;;;;;;5020482;28;20107;-88
2022/01/06 10:12:40;;;;;;;17.23;7.15;;;3.10;82.90;;;;;;5033658;28;20502;-88
2022/01/06 10:15:38;;;;;;;23.45;7.05;;;3.20;82.90;;;;;;5036348;28;20067;-89
2022/01/06 10:18:16;;;;;;;21.73;7.15;;;3.30;82.80;;;;;;5032950;28;20517;-88
2022/01/06 10:20:45;;;;;;;24.92;7.18;;;3.50;82.70;;;;;;5035383;28;20051;-86
2022/01/06 10:23:15;;;;;;;20.60;6.47;;;3.60;82.60;;;;;;5032896;28;20047;-87
2022/01/06 10:25:49;;;;;;;17.33;6.22;;;3.70;82.50;;;;;;5035564;28;20132;-87
2022/01/06 10:28:24;;;;;;;13.43;5.65;;;3.90;82.40;;;;;;5035419;28;20041;-86
2022/01/06 10:30:52;;;;;;;18.35;6.57;;;4.10;82.30;;;;;;5035410;28;20053;-87
2022/01/06 10:33:24;;;;;;;16.17;5.75;;;4.20;82.10;;;;;;5034251;28;20045;-86
2022/01/06 10:35:51;;;;;;;24.33;6.95;;;4.40;82.00;;;;;;5035229;28;20045;-86
2022/01/06 10:38:28;;;;;;;17.88;6.05;;;4.60;81.80;;;;;;5035196;28;20041;-87
2022/01/06 10:41:09;;;;;;;17.58;5.80;;;4.80;81.60;;;;;;5035800;28;20055;-86
2022/01/06 10:43:36;;;;;;;18.02;6.13;;;4.90;81.30;;;;;;5036974;28;20442;-86
2022/01/06 10:46:04;;;;;;;18.67;5.90;;;5.10;81.10;;;;;;5035191;28;20084;-85
2022/01/06 10:48:31;;;;;;;14.38;5.45;;;5.30;80.90;;;;;;5033956;28;20446;-85
2022/01/06 10:50:59;;;;;;;14.70;5.63;;;5.40;80.60;;;;;;5035086;28;20064;-85
2022/01/06 10:53:28;;;;;;;15.32;5.85;;;5.50;80.40;;;;;;5034788;28;20045;-85
2022/01/06 10:55:55;;;;;;;15.63;5.30;;;5.70;80.20;;;;;;5034922;28;20045;-85
2022/01/06 10:58:25;;;;;;;17.85;6.03;;;5.80;79.90;;;;;;5034846;28;20410;-85
2022/01/06 11:00:58;;;;;;;15.88;5.30;;;6.00;79.60;;;;;;5034833;28;20053;-86
2022/01/06 11:03:35;;;;;;;13.68;5.35;;;6.00;79.40;;;;;;5033949;28;20052;-86
2022/01/06 11:06:05;;;;;;;13.55;5.32;;;6.20;79.10;;;;;;5034207;28;20045;-86
2022/01/06 11:08:36;;;;;;;17.25;5.03;;;6.30;78.90;;;;;;5034587;28;20049;-84
2022/01/06 11:13:35;;;;;;;17.55;5.28;;;6.50;78.40;;;;;;5034692;28;20045;-85
2022/01/06 11:16:04;;;;;;;15.88;5.85;;;6.60;78.10;;;;;;5018722;28;20420;-86
2022/01/06 11:18:32;;;;;;;17.40;5.40;;;6.70;77.90;;;;;;5029811;28;20046;-84
2022/01/06 11:21:15;;;;;;;14.90;5.60;;;6.70;77.70;;;;;;5035810;28;20071;-85
2022/01/06 11:23:42;;;;;;;17.80;5.45;;;6.80;77.50;;;;;;5034437;28;20409;-85
2022/01/06 11:26:22;;;;;;;11.20;4.80;;;6.90;77.40;;;;;;5034228;28;20049;-85
2022/01/06 11:28:58;;;;;;;13.75;5.53;;;6.90;77.20;;;;;;5034325;28;20037;-85
2022/01/06 11:31:42;;;;;;;18.33;5.43;;;6.90;77.10;;;;;;5033338;28;20060;-85
2022/01/06 11:34:17;;;;;;;16.33;5.10;;;6.90;77.00;;;;;;5030271;28;20049;-85
2022/01/06 11:36:46;;;;;;;12.77;5.03;;;6.90;77.00;;;;;;5032698;28;20068;-84
2022/01/06 11:39:27;;;;;;;15.88;5.25;;;6.90;77.00;;;;;;5029500;28;20053;-85
2022/01/06 11:41:57;;;;;;;16.75;5.40;;;6.90;76.90;;;;;;5033567;28;20051;-85
2022/01/06 11:44:29;;;;;;;17.27;5.35;;;6.90;76.90;;;;;;5033258;28;20045;-85
2022/01/06 11:47:01;;;;;;;15.45;5.78;;;6.90;76.90;;;;;;5032969;28;20063;-86
2022/01/06 11:49:36;;;;;;;17.27;6.13;;;6.90;76.90;;;;;;5033593;28;20063;-86
2022/01/06 11:52:09;;;;;;;19.15;5.70;;;6.90;76.90;;;;;;5031045;28;20041;-85
2022/01/06 11:54:53;;;;;;;16.00;5.28;;;6.90;76.90;;;;;;5029162;28;20134;-85
2022/01/06 11:57:27;;;;;;;;;;;6.90;76.90;;;;;;5032055;28;20041;-85
2022/01/06 11:59:54;;;;;;;17.13;5.47;;;6.90;77.00;;;;;;5032859;28;19920;-85
2022/01/06 12:02:22;;;;;;;16.83;5.43;;;6.90;76.90;;;;;;5033275;28;20498;-86
2022/01/06 12:04:57;;;;;;;20.40;5.28;;;6.90;76.90;;;;;;5033165;28;20087;-86
2022/01/06 12:07:25;;;;;;;12.38;4.63;;;6.80;77.00;;;;;;5033013;28;20093;-85
2022/01/06 12:10:07;;;;;;;17.95;4.72;;;6.90;77.00;;;;;;5033183;28;20059;-85
2022/01/06 12:12:38;;;;;;;15.77;5.07;;;6.80;77.00;;;;;;5028160;28;20075;-85
2022/01/06 12:15:09;;;;;;;16.92;4.82;;;6.80;77.10;;;;;;5032885;28;20041;-85
2022/01/06 12:17:37;;;;;;;13.52;4.25;;;6.80;77.10;;;;;;5033001;28;20426;-85
2022/01/06 12:20:06;;;;;;;14.15;4.78;;;6.80;77.10;;;;;;5032656;28;20053;-85
2022/01/06 12:22:33;;;;;;;17.25;4.63;;;6.80;77.10;;;;;;5032947;28;20045;-86
2022/01/06 12:25:05;;;;;;;12.80;4.78;;;6.80;77.10;;;;;;5033140;28;20052;-86
2022/01/06 12:27:43;;;;;;;14.18;4.72;;;6.80;77.00;;;;;;5028176;28;20557;-85
2022/01/06 12:30:10;;;;;;;13.35;5.25;;;6.80;77.00;;;;;;5032188;28;20049;-86
2022/01/06 12:32:37;;;;;;;15.20;4.82;;;6.80;76.90;;;;;;5032936;28;20041;-85
2022/01/06 12:35:05;;;;;;;12.48;4.70;;;6.80;76.90;;;;;;5031608;28;20052;-84
2022/01/06 12:37:32;;;;;;;16.92;5.80;;;6.80;76.90;;;;;;5032946;28;20041;-85
2022/01/06 12:40:00;;;;;;;15.63;5.15;;;6.70;76.90;;;;;;5032866;28;20049;-85
2022/01/06 12:42:27;;;;;;;13.02;5.05;;;6.80;77.00;;;;;;5031809;28;20046;-85
2022/01/06 12:44:54;;;;;;;11.95;5.15;;;6.80;76.90;;;;;;5032331;28;20050;-85
2022/01/06 12:47:21;;;;;;;12.70;4.47;;;6.80;76.90;;;;;;5032107;28;20044;-85
2022/01/06 12:49:58;;;;;;;16.02;5.03;;;6.80;76.90;;;;;;5032349;28;20055;-85
2022/01/06 12:52:25;;;;;;;15.05;5.18;;;6.80;76.90;;;;;;5032974;28;20054;-85
2022/01/06 12:54:52;;;;;;;14.00;5.00;;;6.90;76.80;;;;;;5032765;28;20403;-85
2022/01/06 12:57:19;;;;;;;11.00;4.47;;;6.90;76.60;;;;;;5031196;28;20046;-84
2022/01/06 12:59:52;;;;;;;13.43;4.82;;;6.90;76.60;;;;;;5032505;28;20051;-86
2022/01/06 13:02:18;;;;;;;13.60;4.53;;;6.90;76.50;;;;;;5032605;28;20445;-86
2022/01/06 13:04:48;;;;;;;17.73;4.75;;;6.90;76.50;;;;;;5032146;28;20053;-86
2022/01/06 13:07:17;;;;;;;16.35;5.00;;;6.90;76.40;;;;;;5032486;28;20060;-85
2022/01/06 13:09:46;;;;;;;12.48;4.57;;;6.90;76.40;;;;;;5032292;28;20049;-85